Time;durP1;ratioP1;P1;durP2;ratioP2;P2;SDS_P1;SDS_P2;PMS_P1;PMS_P2;Temp;Humidity;BMP_temperature;BMP_pressure;BME280_temperature;BME280_humidity;BME280_pressure;Samples;Min_cycle;Max_cycle;Signal;HPM_P1;HPM_P2
2022/08/09 00:00:23;;;;;;;;;;;;;;;22.28;35.27;100357.13;1083092;39;20791;-74
2022/08/09 00:01:24;;;;;;;;;;;;;;;22.28;35.27;100352.53;1082050;54;20456;-75
2022/08/09 00:02:31;;;;;;;;;;;;;;;22.29;35.03;100356.88;1082343;54;19973;-72
2022/08/09 00:03:32;;;;;;;;;;;;;;;22.25;35.07;100347.50;1082761;54;19966;-73
2022/08/09 00:04:36;;;;;;;;;;;;;;;22.28;34.95;100352.53;1082581;54;19958;-74
2022/08/09 00:05:37;;;;;;;;;;;;;;;22.29;34.74;100354.16;1082800;54;19950;-73
2022/08/09 00:06:40;;;;;;;;;;;;;;;22.33;34.87;100351.88;1083286;39;20436;-73
2022/08/09 00:07:42;;;;;;;;;;;;;;;22.29;34.93;100347.91;1082717;54;19939;-74
2022/08/09 00:08:47;;;;;;;;;;;;;;;22.29;34.51;100359.63;1082658;54;19974;-74
2022/08/09 00:09:48;;;;;;;;;;;;;;;22.31;35.01;100353.13;1082654;54;20025;-73
2022/08/09 00:10:52;;;;;;;;;;;;;;;22.25;35.02;100358.38;1082578;54;19973;-75
2022/08/09 00:11:53;;;;;;;;;;;;;;;22.21;34.26;100353.59;1082897;54;19946;-73
2022/08/09 00:12:57;;;;;;;;;;;;;;;22.23;34.67;100356.94;1083465;39;20357;-74
2022/08/09 00:13:58;;;;;;;;;;;;;;;22.23;34.67;100352.31;1083051;54;19953;-74
2022/08/09 00:15:02;;;;;;;;;;;;;;;22.18;34.59;100357.56;1082607;54;19954;-73
2022/08/09 00:16:03;;;;;;;;;;;;;;;22.22;34.61;100358.81;1082463;54;19969;-74
2022/08/09 00:17:07;;;;;;;;;;;;;;;22.23;34.74;100359.66;1082548;54;19947;-73
2022/08/09 00:18:11;;;;;;;;;;;;;;;22.19;34.10;100358.41;1082541;54;19950;-73
2022/08/09 00:19:14;;;;;;;;;;;;;;;22.19;34.05;100351.09;1082537;54;20445;-74
2022/08/09 00:20:15;;;;;;;;;;;;;;;22.25;34.13;100363.84;1082864;54;19977;-74
2022/08/09 00:21:19;;;;;;;;;;;;;;;22.26;33.91;100354.63;1083048;54;19951;-75
2022/08/09 00:22:20;;;;;;;;;;;;;;;22.28;34.31;100368.84;1083125;54;19947;-74
2022/08/09 00:23:24;;;;;;;;;;;;;;;22.28;34.08;100368.00;1083410;39;20356;-73
2022/08/09 00:24:25;;;;;;;;;;;;;;;22.28;34.02;100368.00;1083134;54;20445;-74
2022/08/09 00:25:29;;;;;;;;;;;;;;;22.25;34.11;100362.97;1083055;54;20431;-73
2022/08/09 00:26:30;;;;;;;;;;;;;;;22.16;34.51;100365.13;1083166;54;19951;-73
2022/08/09 00:27:34;;;;;;;;;;;;;;;22.17;34.43;100369.50;1082973;54;19951;-74
2022/08/09 00:28:35;;;;;;;;;;;;;;;22.24;34.21;100362.16;1083011;54;19974;-74
2022/08/09 00:29:39;;;;;;;;;;;;;;;22.25;34.30;100357.53;1083257;54;19950;-74
2022/08/09 00:30:40;;;;;;;;;;;;;;;22.28;34.15;100360.69;1083058;54;19947;-73
2022/08/09 00:31:43;;;;;;;;;;;;;;;22.29;34.06;100362.34;1082804;54;19969;-75
2022/08/09 00:32:45;;;;;;;;;;;;;;;22.24;34.45;100361.34;1083090;54;19947;-73
2022/08/09 00:33:51;;;;;;;;;;;;;;;22.26;34.12;100365.50;1083084;54;19950;-73
2022/08/09 00:34:52;;;;;;;;;;;;;;;22.29;33.96;100365.06;1083359;39;20432;-75
2022/08/09 00:35:58;;;;;;;;;;;;;;;22.35;34.08;100370.72;1082332;54;19985;-75
2022/08/09 00:37:01;;;;;;;;;;;;;;;22.34;34.38;100360.88;1082716;54;19951;-73
2022/08/09 00:38:03;;;;;;;;;;;;;;;22.25;34.77;100361.09;1082931;54;19946;-74
2022/08/09 00:39:06;;;;;;;;;;;;;;;22.16;34.57;100356.94;1083931;31;20421;-73
2022/08/09 00:40:08;;;;;;;;;;;;;;;22.10;34.91;100355.09;1082882;54;19946;-74
2022/08/09 00:41:12;;;;;;;;;;;;;;;22.04;34.94;100364.09;1083004;54;19954;-74
2022/08/09 00:42:13;;;;;;;;;;;;;;;21.96;35.04;100363.28;1083148;54;19947;-76
2022/08/09 00:43:17;;;;;;;;;;;;;;;21.95;34.83;100361.59;1082324;54;19951;-72
2022/08/09 00:44:18;;;;;;;;;;;;;;;21.94;35.13;100362.66;1082472;54;19947;-74
2022/08/09 00:45:22;;;;;;;;;;;;;;;21.92;35.55;100358.47;1082481;54;19993;-75
2022/08/09 00:46:23;;;;;;;;;;;;;;;21.89;35.45;100356.16;1082520;54;19957;-73
2022/08/09 00:47:27;;;;;;;;;;;;;;;21.84;35.36;100356.81;1082600;54;19947;-75
2022/08/09 00:48:28;;;;;;;;;;;;;;;21.86;35.26;100349.28;1082442;54;19974;-75
2022/08/09 00:49:34;;;;;;;;;;;;;;;21.81;35.52;100360.78;1082456;54;20596;-75
2022/08/09 00:50:35;;;;;;;;;;;;;;;21.81;35.55;100354.53;1082511;54;20683;-74
2022/08/09 00:51:39;;;;;;;;;;;;;;;21.83;35.31;100363.28;1082269;54;20759;-73
2022/08/09 00:52:41;;;;;;;;;;;;;;;21.81;35.54;100352.63;1082357;54;19946;-74
2022/08/09 00:53:45;;;;;;;;;;;;;;;21.81;35.58;100351.81;1082931;39;20684;-74
2022/08/09 00:54:47;;;;;;;;;;;;;;;21.81;35.82;100366.22;1082310;54;19973;-74
2022/08/09 00:55:51;;;;;;;;;;;;;;;21.78;35.98;100355.75;1083295;31;20393;-74
2022/08/09 00:56:52;;;;;;;;;;;;;;;21.76;36.10;100351.59;1082883;39;20684;-74
2022/08/09 00:57:56;;;;;;;;;;;;;;;21.76;35.74;100354.31;1082274;54;19953;-74
2022/08/09 00:58:57;;;;;;;;;;;;;;;21.72;35.88;100361.22;1083016;39;20318;-74
2022/08/09 01:00:00;;;;;;;;;;;;;;;21.69;36.26;100361.66;1082488;54;19966;-76
2022/08/09 01:02:07;;;;;;;;;;;;;;;21.65;36.25;100364.78;1084359;54;19954;-78
2022/08/09 01:03:13;;;;;;;;;;;;;;;21.59;36.52;100362.06;1084656;39;20317;-78
2022/08/09 01:04:22;;;;;;;;;;;;;;;21.61;36.21;100363.53;1084626;39;20255;-81
2022/08/09 01:05:30;;;;;;;;;;;;;;;21.58;36.53;100358.50;1084925;46;19946;-77
2022/08/09 01:06:38;;;;;;;;;;;;;;;21.45;36.68;100369.34;1084786;54;19939;-78
2022/08/09 01:07:47;;;;;;;;;;;;;;;21.32;36.72;100360.16;1085112;54;19969;-79
2022/08/09 01:08:56;;;;;;;;;;;;;;;21.24;37.18;100357.66;1085037;54;20732;-79
2022/08/09 01:10:00;;;;;;;;;;;;;;;21.19;36.99;100365.56;1085069;54;19941;-79
2022/08/09 01:11:11;;;;;;;;;;;;;;;21.16;37.07;100363.28;1084872;54;19946;-78
2022/08/09 01:12:16;;;;;;;;;;;;;;;21.13;36.83;100364.50;1084661;54;20460;-78
2022/08/09 01:13:21;;;;;;;;;;;;;;;21.12;37.16;100364.72;1084959;54;19939;-79
2022/08/09 01:14:25;;;;;;;;;;;;;;;21.11;36.83;100363.88;1085166;54;19970;-80
2022/08/09 01:15:32;;;;;;;;;;;;;;;21.09;37.17;100360.56;1085113;54;19977;-80
2022/08/09 01:16:35;;;;;;;;;;;;;;;21.10;36.86;100355.94;1084919;54;20444;-79
2022/08/09 01:17:40;;;;;;;;;;;;;;;21.09;37.16;100365.13;1084961;54;19998;-80
2022/08/09 01:18:44;;;;;;;;;;;;;;;21.07;36.74;100361.78;1084815;54;19939;-79
2022/08/09 01:19:51;;;;;;;;;;;;;;;21.05;37.03;100364.72;1085059;46;20433;-80
2022/08/09 01:21:01;;;;;;;;;;;;;;;21.03;37.08;100370.38;1084207;54;19973;-79
2022/08/09 01:22:10;;;;;;;;;;;;;;;21.02;37.18;100365.97;1084372;54;19946;-78
2022/08/09 01:23:16;;;;;;;;;;;;;;;21.02;36.78;100370.56;1085224;39;20744;-79
2022/08/09 01:24:28;;;;;;;;;;;;;;;20.98;36.80;100367.41;1085781;39;20379;-80
2022/08/09 01:25:36;;;;;;;;;;;;;;;20.96;36.83;100369.53;1084466;54;19969;-80
2022/08/09 01:26:55;;;;;;;;;;;;;;;20.96;36.97;100365.94;1084068;54;19950;-81
2022/08/09 01:27:56;;;;;;;;;;;;;;;20.97;36.79;100373.06;1084219;54;19986;-80
2022/08/09 01:29:00;;;;;;;;;;;;;;;20.95;36.70;100369.69;1084124;54;20058;-80
2022/08/09 01:30:04;;;;;;;;;;;;;;;20.95;36.80;100367.00;1083979;54;19954;-79
2022/08/09 01:31:10;;;;;;;;;;;;;;;20.95;36.72;100372.41;1084037;54;20057;-80
2022/08/09 01:32:12;;;;;;;;;;;;;;;20.90;36.84;100374.94;1084163;54;19946;-79
2022/08/09 01:33:16;;;;;;;;;;;;;;;20.91;37.25;100377.44;1085035;39;20364;-80
2022/08/09 01:34:20;;;;;;;;;;;;;;;20.91;37.14;100374.72;1084153;54;19969;-79
2022/08/09 01:35:26;;;;;;;;;;;;;;;20.96;36.71;100380.38;1084119;54;19973;-79
2022/08/09 01:36:27;;;;;;;;;;;;;;;20.91;36.66;100376.59;1085127;39;20360;-80
2022/08/09 01:37:31;;;;;;;;;;;;;;;20.92;36.88;100383.72;1084288;54;19947;-80
2022/08/09 01:38:34;;;;;;;;;;;;;;;20.91;36.83;100373.91;1084098;54;20397;-78
2022/08/09 01:39:39;;;;;;;;;;;;;;;20.90;36.99;100373.03;1083920;54;19947;-80
2022/08/09 01:40:44;;;;;;;;;;;;;;;20.95;36.90;100378.72;1084254;54;19946;-79
2022/08/09 01:41:49;;;;;;;;;;;;;;;20.94;36.77;100379.75;1083998;54;19965;-81
2022/08/09 01:42:54;;;;;;;;;;;;;;;20.92;37.06;100375.56;1084166;54;19947;-77
2022/08/09 01:43:59;;;;;;;;;;;;;;;20.90;37.02;100386.63;1084443;54;20571;-79
2022/08/09 01:45:02;;;;;;;;;;;;;;;20.84;36.95;100379.31;1084332;54;19947;-78
2022/08/09 01:46:06;;;;;;;;;;;;;;;20.84;36.94;100379.31;1084785;54;19950;-81
2022/08/09 01:47:09;;;;;;;;;;;;;;;20.85;37.25;100381.81;1085233;39;20081;-78
2022/08/09 01:48:13;;;;;;;;;;;;;;;20.91;36.73;100382.03;1084824;54;19988;-79
2022/08/09 01:49:16;;;;;;;;;;;;;;;20.92;36.53;100376.41;1085835;39;20416;-78
2022/08/09 01:50:21;;;;;;;;;;;;;;;20.96;36.80;100374.09;1084967;54;19951;-78
2022/08/09 01:51:23;;;;;;;;;;;;;;;20.93;36.56;100379.94;1084635;54;19947;-78
2022/08/09 01:52:27;;;;;;;;;;;;;;;20.96;36.41;100383.09;1085028;39;20369;-78
2022/08/09 01:53:29;;;;;;;;;;;;;;;20.98;36.68;100385.59;1084688;54;19970;-78
2022/08/09 01:54:34;;;;;;;;;;;;;;;20.97;36.43;100383.94;1084785;54;20480;-78
2022/08/09 01:55:36;;;;;;;;;;;;;;;20.97;36.43;100383.94;1084652;54;19962;-78
2022/08/09 01:56:41;;;;;;;;;;;;;;;21.03;36.15;100380.38;1084351;54;19998;-78
2022/08/09 01:57:45;;;;;;;;;;;;;;;21.04;36.30;100385.63;1084200;54;19970;-78
2022/08/09 01:58:53;;;;;;;;;;;;;;;21.10;36.21;100377.69;1084247;54;19946;-79
2022/08/09 01:59:57;;;;;;;;;;;;;;;21.08;36.41;100385.19;1084156;54;19947;-80
2022/08/09 02:01:02;;;;;;;;;;;;;;;21.11;36.27;100385.63;1084826;31;20416;-79
2022/08/09 02:02:03;;;;;;;;;;;;;;;21.16;36.43;100376.88;1083983;54;19950;-79
2022/08/09 02:03:07;;;;;;;;;;;;;;;21.13;36.54;100377.28;1083909;54;19954;-79
2022/08/09 02:04:09;;;;;;;;;;;;;;;21.13;36.70;100380.00;1085220;39;20428;-80
2022/08/09 02:05:15;;;;;;;;;;;;;;;21.15;36.35;100381.47;1084226;54;20754;-80
2022/08/09 02:07:07;;;;;;;;;;;;;;;21.16;36.17;100377.69;1084136;54;19957;-78
2022/08/09 02:07:44;;;;;;;;;;;;;;;21.19;36.36;100381.88;1083969;54;20655;-78
2022/08/09 02:08:48;;;;;;;;;;;;;;;21.20;36.46;100378.13;1084072;54;19946;-80
2022/08/09 02:09:53;;;;;;;;;;;;;;;21.22;36.31;100384.19;1084377;54;19957;-80
2022/08/09 02:10:58;;;;;;;;;;;;;;;21.22;36.24;100383.34;1084131;54;20002;-78
2022/08/09 02:12:00;;;;;;;;;;;;;;;21.22;36.41;100386.91;1084275;39;20351;-78
2022/08/09 02:13:05;;;;;;;;;;;;;;;21.21;36.58;100384.41;1084250;54;19950;-79
2022/08/09 02:14:10;;;;;;;;;;;;;;;21.22;36.24;100381.47;1084239;54;19977;-78
2022/08/09 02:15:14;;;;;;;;;;;;;;;21.23;36.56;100385.88;1084395;47;19969;-80
2022/08/09 02:16:15;;;;;;;;;;;;;;;21.16;36.75;100393.19;1084003;54;19951;-78
2022/08/09 02:17:21;;;;;;;;;;;;;;;21.14;36.52;100389.81;1084200;54;19947;-79
2022/08/09 02:18:23;;;;;;;;;;;;;;;21.12;36.93;100392.72;1084701;39;20658;-78
2022/08/09 02:19:27;;;;;;;;;;;;;;;21.14;36.41;100389.81;1084201;54;19970;-79
2022/08/09 02:20:32;;;;;;;;;;;;;;;21.14;36.41;100389.81;1084159;54;19973;-78
2022/08/09 02:21:38;;;;;;;;;;;;;;;21.08;37.08;100390.63;1084424;39;20361;-79
2022/08/09 02:22:44;;;;;;;;;;;;;;;21.05;36.46;100397.31;1085669;39;20435;-80
2022/08/09 02:23:48;;;;;;;;;;;;;;;21.06;36.51;100392.75;1084752;54;19954;-78
2022/08/09 02:24:55;;;;;;;;;;;;;;;21.07;36.35;100395.25;1084720;54;19965;-79
2022/08/09 02:25:58;;;;;;;;;;;;;;;21.13;36.19;100394.41;1084624;54;19954;-80
2022/08/09 02:27:04;;;;;;;;;;;;;;;21.11;36.62;100395.66;1084702;54;19946;-78
2022/08/09 02:28:06;;;;;;;;;;;;;;;21.13;36.41;100399.84;1084639;47;20468;-79
2022/08/09 02:29:15;;;;;;;;;;;;;;;21.15;36.36;100397.78;1084727;54;19973;-78
2022/08/09 02:30:17;;;;;;;;;;;;;;;21.15;36.56;100396.94;1085291;31;20543;-79
2022/08/09 02:31:22;;;;;;;;;;;;;;;21.16;36.50;100396.72;1084772;54;19951;-79
2022/08/09 02:32:25;;;;;;;;;;;;;;;21.16;36.42;100404.88;1084600;54;19939;-78
2022/08/09 02:33:32;;;;;;;;;;;;;;;21.17;36.31;100397.56;1084585;54;19946;-79
2022/08/09 02:34:34;;;;;;;;;;;;;;;21.16;36.51;100404.06;1084610;54;19970;-79
2022/08/09 02:35:39;;;;;;;;;;;;;;;21.18;36.38;100402.81;1084743;54;19942;-79
2022/08/09 02:36:42;;;;;;;;;;;;;;;21.17;36.05;100408.41;1084515;54;20054;-78
2022/08/09 02:37:46;;;;;;;;;;;;;;;21.06;36.50;100404.44;1084031;54;19946;-79
2022/08/09 02:38:49;;;;;;;;;;;;;;;21.06;36.59;100400.91;1083912;54;19947;-79
2022/08/09 02:39:56;;;;;;;;;;;;;;;21.03;36.41;100405.69;1084006;54;20495;-80
2022/08/09 02:41:00;;;;;;;;;;;;;;;21.06;36.45;100409.88;1084422;54;19955;-80
2022/08/09 02:42:07;;;;;;;;;;;;;;;21.03;36.51;100405.69;1085060;39;20333;-78
2022/08/09 02:43:09;;;;;;;;;;;;;;;21.07;36.43;100407.97;1084627;54;19939;-77
2022/08/09 02:44:19;;;;;;;;;;;;;;;21.05;37.10;100410.91;1084768;54;19962;-78
2022/08/09 02:45:22;;;;;;;;;;;;;;;21.02;37.28;100408.59;1084732;54;19978;-78
2022/08/09 02:46:27;;;;;;;;;;;;;;;21.02;37.35;100406.72;1084780;54;20475;-79
2022/08/09 02:47:30;;;;;;;;;;;;;;;21.04;37.34;100406.50;1085023;39;20070;-79
2022/08/09 02:48:35;;;;;;;;;;;;;;;21.07;36.85;100403.41;1084545;54;19950;-80
2022/08/09 02:49:39;;;;;;;;;;;;;;;21.09;37.15;100403.19;1084498;54;19939;-78
2022/08/09 02:50:45;;;;;;;;;;;;;;;21.06;37.41;100398.19;1084876;54;20041;-77
2022/08/09 02:51:49;;;;;;;;;;;;;;;21.03;37.53;100400.25;1084786;39;20399;-79
2022/08/09 02:52:55;;;;;;;;;;;;;;;21.02;37.27;100395.88;1084032;54;19950;-80
2022/08/09 02:53:57;;;;;;;;;;;;;;;21.01;37.45;100402.34;1084278;54;19954;-79
2022/08/09 02:55:02;;;;;;;;;;;;;;;20.92;37.85;100398.13;1084521;54;19950;-78
2022/08/09 02:56:05;;;;;;;;;;;;;;;20.91;37.60;100399.16;1084618;46;19993;-80
2022/08/09 02:57:10;;;;;;;;;;;;;;;20.90;37.42;100402.09;1085147;39;20341;-79
2022/08/09 02:58:12;;;;;;;;;;;;;;;20.88;37.68;100399.56;1084257;54;20042;-79
2022/08/09 02:59:20;;;;;;;;;;;;;;;20.86;37.43;100391.63;1084747;39;20633;-78
2022/08/09 03:00:21;;;;;;;;;;;;;;;20.85;37.83;100394.56;1084092;54;19950;-80
2022/08/09 03:01:25;;;;;;;;;;;;;;;20.83;37.58;100391.22;1084333;39;20360;-79
2022/08/09 03:02:27;;;;;;;;;;;;;;;20.83;37.64;100393.94;1084033;54;19946;-79
2022/08/09 03:03:33;;;;;;;;;;;;;;;20.82;37.54;100386.81;1084326;39;20796;-79
2022/08/09 03:04:35;;;;;;;;;;;;;;;20.82;37.41;100389.53;1083871;54;19985;-79
2022/08/09 03:05:39;;;;;;;;;;;;;;;20.80;37.85;100394.31;1083908;54;20740;-78
2022/08/09 03:06:41;;;;;;;;;;;;;;;20.80;37.49;100392.47;1083986;54;19950;-78
2022/08/09 03:07:46;;;;;;;;;;;;;;;20.80;37.70;100383.47;1084074;54;19946;-78
2022/08/09 03:08:48;;;;;;;;;;;;;;;20.82;37.41;100384.09;1084536;39;20488;-77
2022/08/09 03:09:52;;;;;;;;;;;;;;;20.79;38.00;100385.34;1084075;54;19989;-79
2022/08/09 03:10:54;;;;;;;;;;;;;;;20.72;38.43;100382.56;1084050;54;19951;-81
2022/08/09 03:11:59;;;;;;;;;;;;;;;20.70;38.29;100384.66;1083997;54;20694;-78
2022/08/09 03:13:01;;;;;;;;;;;;;;;20.71;37.96;100385.50;1084259;54;19953;-80
2022/08/09 03:14:06;;;;;;;;;;;;;;;20.69;38.03;100391.13;1084462;54;19973;-78
2022/08/09 03:15:11;;;;;;;;;;;;;;;20.65;38.47;100387.16;1084408;54;20548;-78
2022/08/09 03:16:17;;;;;;;;;;;;;;;20.64;38.44;100384.66;1084577;54;19989;-80
2022/08/09 03:17:19;;;;;;;;;;;;;;;20.63;38.22;100394.66;1084556;54;19946;-79
2022/08/09 03:18:23;;;;;;;;;;;;;;;20.64;38.33;100396.34;1084802;54;19950;-80
2022/08/09 03:19:25;;;;;;;;;;;;;;;20.61;38.53;100390.47;1084545;54;19946;-79
2022/08/09 03:20:29;;;;;;;;;;;;;;;20.61;38.05;100388.59;1085350;54;19973;-80
2022/08/09 03:21:31;;;;;;;;;;;;;;;20.59;38.13;100387.97;1085262;54;19954;-80
2022/08/09 03:22:38;;;;;;;;;;;;;;;20.62;37.97;100392.16;1085164;54;19969;-79
2022/08/09 03:23:42;;;;;;;;;;;;;;;20.60;38.43;100386.91;1085441;54;19947;-78
2022/08/09 03:24:46;;;;;;;;;;;;;;;20.46;38.77;100390.63;1085106;54;19969;-78
2022/08/09 03:25:48;;;;;;;;;;;;;;;20.37;38.88;100388.06;1085098;54;19946;-78
2022/08/09 03:26:52;;;;;;;;;;;;;;;20.39;38.66;100390.56;1084925;54;20023;-79
2022/08/09 03:27:54;;;;;;;;;;;;;;;20.39;38.67;100396.84;1085537;39;20369;-79
2022/08/09 03:28:58;;;;;;;;;;;;;;;20.39;38.74;100393.28;1085177;54;19947;-77
2022/08/09 03:29:59;;;;;;;;;;;;;;;20.39;38.72;100394.16;1085247;54;19970;-79
2022/08/09 03:31:06;;;;;;;;;;;;;;;20.39;38.74;100394.16;1085299;54;20516;-79
2022/08/09 03:32:08;;;;;;;;;;;;;;;20.41;38.79;100402.09;1085356;54;19946;-78
2022/08/09 03:33:12;;;;;;;;;;;;;;;20.40;38.72;100405.84;1085248;54;19974;-79
2022/08/09 03:34:13;;;;;;;;;;;;;;;20.40;38.51;100403.94;1086230;39;20408;-80
2022/08/09 03:35:16;;;;;;;;;;;;;;;20.40;38.89;100403.94;1084576;54;20093;-78
2022/08/09 03:36:20;;;;;;;;;;;;;;;20.36;38.75;100401.81;1084699;54;20437;-79
2022/08/09 03:37:21;;;;;;;;;;;;;;;20.35;38.96;100397.47;1084653;54;20562;-78
2022/08/09 03:38:25;;;;;;;;;;;;;;;20.35;38.97;100400.19;1084988;54;19947;-81
2022/08/09 03:39:26;;;;;;;;;;;;;;;20.33;38.85;100404.97;1085129;54;19950;-78
2022/08/09 03:40:30;;;;;;;;;;;;;;;20.27;39.07;100401.16;1085348;54;20054;-78
2022/08/09 03:41:31;;;;;;;;;;;;;;;20.22;39.05;100403.63;1085820;39;20418;-78
2022/08/09 03:42:35;;;;;;;;;;;;;;;20.15;39.28;100403.63;1085051;54;19947;-80
2022/08/09 03:43:36;;;;;;;;;;;;;;;20.16;38.85;100404.44;1085314;54;19939;-76
2022/08/09 03:44:40;;;;;;;;;;;;;;;20.09;38.92;100398.97;1084832;54;20472;-78
2022/08/09 03:45:41;;;;;;;;;;;;;;;20.03;39.04;100406.03;1084971;54;19955;-79
2022/08/09 03:46:48;;;;;;;;;;;;;;;20.01;39.05;100416.25;1085164;54;19981;-80
2022/08/09 03:47:49;;;;;;;;;;;;;;;19.98;39.32;100411.22;1085269;54;19946;-79
2022/08/09 03:48:55;;;;;;;;;;;;;;;19.98;39.10;100416.66;1085697;54;19969;-78
2022/08/09 03:49:56;;;;;;;;;;;;;;;20.02;38.97;100408.94;1085764;54;19969;-79
2022/08/09 03:51:01;;;;;;;;;;;;;;;20.03;39.30;100408.72;1086067;39;20385;-78
2022/08/09 03:52:06;;;;;;;;;;;;;;;20.03;39.55;100414.16;1085256;54;19946;-80
2022/08/09 03:53:08;;;;;;;;;;;;;;;20.02;39.45;100415.22;1084625;54;20538;-79
2022/08/09 03:54:13;;;;;;;;;;;;;;;20.01;39.89;100412.69;1085012;54;20443;-77
2022/08/09 03:55:14;;;;;;;;;;;;;;;19.99;40.11;100415.63;1085371;54;19950;-78
2022/08/09 03:56:18;;;;;;;;;;;;;;;20.00;40.02;100413.72;1085509;54;20031;-79
2022/08/09 03:57:20;;;;;;;;;;;;;;;20.01;39.92;100413.53;1085124;54;19947;-79
2022/08/09 03:58:24;;;;;;;;;;;;;;;20.01;40.37;100409.97;1085141;54;19973;-80
2022/08/09 03:59:25;;;;;;;;;;;;;;;20.02;40.40;100419.78;1085325;54;19951;-79
2022/08/09 04:00:29;;;;;;;;;;;;;;;20.00;40.28;100417.28;1084573;54;19947;-78
2022/08/09 04:01:30;;;;;;;;;;;;;;;20.00;40.49;100417.28;1084923;54;19950;-78
2022/08/09 04:02:38;;;;;;;;;;;;;;;20.00;40.22;100417.28;1085038;54;19947;-78
2022/08/09 04:03:40;;;;;;;;;;;;;;;19.98;40.11;100422.06;1084866;54;19947;-79
2022/08/09 04:04:44;;;;;;;;;;;;;;;19.98;40.00;100422.06;1085168;54;20445;-79
2022/08/09 04:05:45;;;;;;;;;;;;;;;19.99;39.95;100420.19;1085165;54;19954;-80
2022/08/09 04:06:49;;;;;;;;;;;;;;;19.99;40.19;100422.91;1086803;46;19957;-79
2022/08/09 04:07:50;;;;;;;;;;;;;;;19.98;39.98;100423.97;1086038;54;19951;-78
2022/08/09 04:08:53;;;;;;;;;;;;;;;19.97;39.92;100417.69;1086466;54;19947;-79
2022/08/09 04:09:55;;;;;;;;;;;;;;;19.98;40.08;100419.34;1086275;54;19970;-79
2022/08/09 04:10:59;;;;;;;;;;;;;;;19.95;40.32;100426.03;1086726;54;19946;-79
2022/08/09 04:12:14;;;;;;;;;;;;;;;19.97;40.15;100430.41;1086080;54;19958;-79
2022/08/09 04:13:18;;;;;;;;;;;;;;;19.93;40.14;100427.25;1086395;54;19950;-79
2022/08/09 04:14:20;;;;;;;;;;;;;;;19.84;40.31;100428.41;1086160;54;19951;-79
2022/08/09 04:15:25;;;;;;;;;;;;;;;19.87;40.40;100425.31;1086200;54;19957;-77
2022/08/09 04:16:26;;;;;;;;;;;;;;;19.89;40.09;100424.06;1086207;54;20520;-79
2022/08/09 04:17:30;;;;;;;;;;;;;;;19.90;39.84;100428.47;1085868;54;19953;-78
2022/08/09 04:18:36;;;;;;;;;;;;;;;19.90;39.70;100433.06;1086029;54;19958;-79
2022/08/09 04:19:37;;;;;;;;;;;;;;;19.91;40.05;100429.31;1089564;39;20912;-79
2022/08/09 04:20:41;;;;;;;;;;;;;;;19.92;39.96;100431.00;1086160;54;19943;-79
2022/08/09 04:21:44;;;;;;;;;;;;;;;19.91;39.62;100426.63;1085865;54;19950;-79
2022/08/09 04:22:48;;;;;;;;;;;;;;;19.88;39.78;100432.44;1086295;54;19993;-78
2022/08/09 04:23:49;;;;;;;;;;;;;;;19.76;40.06;100429.38;1086177;54;19958;-79
2022/08/09 04:24:53;;;;;;;;;;;;;;;19.68;40.25;100430.34;1086428;46;19943;-78
2022/08/09 04:25:58;;;;;;;;;;;;;;;19.64;40.25;100429.09;1086661;46;19958;-78
2022/08/09 04:27:00;;;;;;;;;;;;;;;19.52;40.80;100433.34;1086348;54;20626;-78
2022/08/09 04:28:06;;;;;;;;;;;;;;;19.48;40.73;100444.56;1086793;54;20502;-79
2022/08/09 04:29:13;;;;;;;;;;;;;;;19.47;40.66;100440.19;1086516;54;19981;-78
2022/08/09 04:30:24;;;;;;;;;;;;;;;19.49;40.74;100440.81;1086604;31;20568;-78
2022/08/09 04:31:26;;;;;;;;;;;;;;;19.51;40.75;100450.63;1086252;54;19994;-78
2022/08/09 04:32:30;;;;;;;;;;;;;;;19.46;41.06;100445.81;1086861;54;19946;-78
2022/08/09 04:33:33;;;;;;;;;;;;;;;19.42;40.76;100442.66;1089950;39;20369;-78
2022/08/09 04:34:37;;;;;;;;;;;;;;;19.38;40.95;100449.47;1087000;54;19951;-77
2022/08/09 04:35:41;;;;;;;;;;;;;;;19.32;40.91;100461.09;1086891;54;19947;-78
2022/08/09 04:36:44;;;;;;;;;;;;;;;19.31;41.18;100451.28;1086784;46;19950;-77
2022/08/09 04:37:45;;;;;;;;;;;;;;;19.36;41.16;100461.53;1086739;54;19966;-79
2022/08/09 04:38:49;;;;;;;;;;;;;;;19.40;41.07;100466.38;1086918;54;19947;-77
2022/08/09 04:39:50;;;;;;;;;;;;;;;19.42;41.29;100461.63;1086406;54;19950;-78
2022/08/09 04:40:54;;;;;;;;;;;;;;;19.40;41.25;100469.09;1086739;54;19939;-78
2022/08/09 04:41:55;;;;;;;;;;;;;;;19.39;41.30;100469.31;1086737;46;20448;-79
2022/08/09 04:42:59;;;;;;;;;;;;;;;19.39;41.59;100462.00;1086021;54;19947;-78
2022/08/09 04:44:01;;;;;;;;;;;;;;;19.34;41.88;100472.59;1085866;54;19965;-78
2022/08/09 04:45:05;;;;;;;;;;;;;;;19.38;41.61;100467.63;1086436;54;19953;-78
2022/08/09 04:46:07;;;;;;;;;;;;;;;19.39;41.67;100474.72;1086857;54;19946;-77
2022/08/09 04:47:10;;;;;;;;;;;;;;;19.33;42.14;100471.72;1086551;54;19943;-77
2022/08/09 04:48:12;;;;;;;;;;;;;;;19.32;41.99;100480.06;1087377;39;20367;-77
2022/08/09 04:49:18;;;;;;;;;;;;;;;19.38;41.94;100473.88;1086881;54;19973;-79
2022/08/09 04:50:19;;;;;;;;;;;;;;;19.41;42.15;100472.66;1086298;54;19981;-78
2022/08/09 04:51:23;;;;;;;;;;;;;;;19.38;42.22;100471.16;1087848;39;20377;-78
2022/08/09 04:52:25;;;;;;;;;;;;;;;19.40;41.47;100479.13;1086548;54;19951;-79
2022/08/09 04:53:29;;;;;;;;;;;;;;;19.39;41.76;100478.25;1086614;54;19939;-79
2022/08/09 04:54:30;;;;;;;;;;;;;;;19.43;41.64;100482.28;1087676;39;20352;-78
2022/08/09 04:55:34;;;;;;;;;;;;;;;19.44;41.71;100481.25;1086095;54;20561;-78
2022/08/09 04:56:35;;;;;;;;;;;;;;;19.48;41.42;100479.00;1086123;54;19943;-77
2022/08/09 04:57:38;;;;;;;;;;;;;;;19.52;41.54;100484.84;1086050;54;19946;-78
2022/08/09 04:58:39;;;;;;;;;;;;;;;19.46;41.33;100491.88;1086147;54;19950;-78
2022/08/09 04:59:43;;;;;;;;;;;;;;;19.42;41.29;100483.31;1085802;54;19958;-78
2022/08/09 05:00:44;;;;;;;;;;;;;;;19.36;41.40;100491.34;1086106;54;20027;-78
2022/08/09 05:01:48;;;;;;;;;;;;;;;19.39;41.67;100489.09;1085435;54;21054;-77
2022/08/09 05:02:49;;;;;;;;;;;;;;;19.44;41.07;100492.09;1085935;54;19954;-78
2022/08/09 05:03:53;;;;;;;;;;;;;;;19.51;41.16;100488.59;1085802;54;19947;-77
2022/08/09 05:04:57;;;;;;;;;;;;;;;19.47;41.61;100490.84;1085574;54;19981;-79
2022/08/09 05:06:01;;;;;;;;;;;;;;;19.53;40.89;100486.53;1085962;54;19972;-78
2022/08/09 05:07:02;;;;;;;;;;;;;;;19.58;40.95;100497.63;1086134;54;19950;-78
2022/08/09 05:08:06;;;;;;;;;;;;;;;19.61;41.03;100489.94;1086296;47;19978;-77
2022/08/09 05:09:07;;;;;;;;;;;;;;;19.63;40.95;100500.63;1087744;46;19951;-78
2022/08/09 05:10:12;;;;;;;;;;;;;;;19.60;41.14;100492.84;1086131;54;19969;-78
2022/08/09 05:11:14;;;;;;;;;;;;;;;19.59;41.25;100497.47;1086310;54;20050;-78
2022/08/09 05:12:17;;;;;;;;;;;;;;;19.61;41.38;100499.97;1086352;39;20115;-78
2022/08/09 05:13:18;;;;;;;;;;;;;;;19.61;41.50;100498.09;1086207;54;19943;-78
2022/08/09 05:14:22;;;;;;;;;;;;;;;19.63;41.55;100495.19;1086307;54;20050;-78
2022/08/09 05:15:25;;;;;;;;;;;;;;;19.66;41.45;100497.50;1086397;54;19954;-78
2022/08/09 05:16:28;;;;;;;;;;;;;;;19.60;41.40;100490.16;1086288;54;20002;-78
2022/08/09 05:17:30;;;;;;;;;;;;;;;19.49;41.47;100495.06;1086244;54;19981;-78
2022/08/09 05:18:34;;;;;;;;;;;;;;;19.41;41.56;100488.94;1086534;54;20545;-79
2022/08/09 05:19:35;;;;;;;;;;;;;;;19.29;41.50;100492.13;1086606;54;19939;-78
2022/08/09 05:20:41;;;;;;;;;;;;;;;19.23;42.00;100492.88;1085922;54;19962;-78
2022/08/09 05:21:42;;;;;;;;;;;;;;;19.18;41.88;100501.59;1085961;54;19951;-79
2022/08/09 05:22:47;;;;;;;;;;;;;;;19.14;42.38;100492.16;1085334;54;19951;-79
2022/08/09 05:23:48;;;;;;;;;;;;;;;19.16;42.12;100503.66;1085942;54;19962;-78
2022/08/09 05:24:52;;;;;;;;;;;;;;;19.22;41.81;100499.34;1085629;54;19947;-78
2022/08/09 05:25:53;;;;;;;;;;;;;;;19.25;41.88;100498.97;1086625;54;19957;-80
2022/08/09 05:26:57;;;;;;;;;;;;;;;19.26;42.19;100497.09;1087476;46;19962;-79
2022/08/09 05:27:58;;;;;;;;;;;;;;;19.22;42.20;100499.34;1087010;54;20030;-79